Terminal Aerodrome Forecast
Issued by NWS Charleston, WV

Current Version | Previous Version | Graphics & Text | Print | Product List | Glossary On
Versions: 1 2 3 4 5 6 7 8 9 10 11 12 13 14 15 16 17 18 19 20 21 22 23 24 25 26
834
FTUS41 KRLX 211857 AAA
TAFBKW
TAF AMD
KBKW 211857Z 2119/2218 32005KT P6SM OVC009
     FM212000 31005KT P6SM BKN012
     FM212100 32008KT P6SM BKN020
     FM220600 33009G16KT P6SM BKN040
     FM220800 33011G17KT P6SM BKN025
     FM221100 34012KT P6SM BKN040=

USA.gov is the U.S. government's official web portal to all federal, state and local government web resources and services.